Time;durP1;ratioP1;P1;durP2;ratioP2;P2;SDS_P1;SDS_P2;PMS_P1;PMS_P2;Temp;Humidity;BMP_temperature;BMP_pressure;BME280_temperature;BME280_humidity;BME280_pressure;Samples;Min_cycle;Max_cycle;Signal;HPM_P1;HPM_P2
2021/06/07 00:02:21;;;;;;;34.43;22.10;;;18.40;80.20;;;;;;5043116;28;20471;-46
2021/06/07 00:04:50;;;;;;;33.00;21.10;;;18.40;80.40;;;;;;5045044;28;20502;-46
2021/06/07 00:07:18;;;;;;;33.77;23.23;;;18.40;80.40;;;;;;5038730;28;20448;-46
2021/06/07 00:09:46;;;;;;;28.47;19.87;;;18.40;80.40;;;;;;5045277;28;20482;-46
2021/06/07 00:12:16;;;;;;;31.37;21.30;;;18.40;80.50;;;;;;5042930;28;20451;-46
2021/06/07 00:14:45;;;;;;;32.37;21.10;;;18.40;80.30;;;;;;5043509;28;20451;-46
2021/06/07 00:17:13;;;;;;;33.77;21.93;;;18.40;80.10;;;;;;5041641;28;20461;-46
2021/06/07 00:19:42;;;;;;;30.43;20.57;;;18.40;80.00;;;;;;5039387;28;20458;-46
2021/06/07 00:22:10;;;;;;;29.63;20.77;;;18.40;80.20;;;;;;5039466;28;20493;-46
2021/06/07 00:24:38;;;;;;;31.40;20.03;;;18.40;80.40;;;;;;5041425;28;20486;-46
2021/06/07 00:27:07;;;;;;;30.90;19.43;;;18.30;80.50;;;;;;5041945;28;20446;-46
2021/06/07 00:29:35;;;;;;;28.77;20.50;;;18.30;80.60;;;;;;5042520;28;20477;-46
2021/06/07 00:32:04;;;;;;;27.63;18.50;;;18.40;80.30;;;;;;5039791;28;20505;-46
2021/06/07 00:34:33;;;;;;;26.33;18.77;;;18.40;80.30;;;;;;5040325;28;20455;-46
2021/06/07 00:37:01;;;;;;;29.00;20.47;;;18.40;80.20;;;;;;5040008;28;20446;-46
2021/06/07 00:39:29;;;;;;;29.50;20.03;;;18.40;80.30;;;;;;5041701;28;20467;-46
2021/06/07 00:41:58;;;;;;;32.37;20.83;;;18.40;79.80;;;;;;5043424;28;20462;-46
2021/06/07 00:44:26;;;;;;;24.63;18.17;;;18.40;79.90;;;;;;5042127;28;20486;-46
2021/06/07 00:46:54;;;;;;;27.63;18.40;;;18.40;80.20;;;;;;5040142;28;20490;-46
2021/06/07 00:49:23;;;;;;;28.13;19.80;;;18.40;80.20;;;;;;5039732;28;20458;-46
2021/06/07 00:51:51;;;;;;;30.07;19.23;;;18.40;80.00;;;;;;5039819;28;20458;-46
2021/06/07 00:54:19;;;;;;;25.50;18.50;;;18.40;79.80;;;;;;5040518;28;20850;-46
2021/06/07 00:56:48;;;;;;;25.77;18.23;;;18.40;80.10;;;;;;5042142;28;20455;-46
2021/06/07 00:59:16;;;;;;;27.00;18.43;;;18.40;80.20;;;;;;5040731;28;20809;-46
2021/06/07 01:01:44;;;;;;;25.83;17.27;;;18.40;80.10;;;;;;5038545;28;21054;-46
2021/06/07 01:04:13;;;;;;;26.07;19.23;;;18.40;80.00;;;;;;5043816;28;21024;-46
2021/06/07 01:06:42;;;;;;;25.57;17.50;;;18.40;80.00;;;;;;5039408;28;20457;-46
2021/06/07 01:09:10;;;;;;;28.17;17.50;;;18.40;80.20;;;;;;5041774;28;22186;-46
2021/06/07 01:11:39;;;;;;;23.37;16.90;;;18.40;80.10;;;;;;5042664;28;20464;-46
2021/06/07 01:14:07;;;;;;;24.13;18.13;;;18.40;80.30;;;;;;5038231;28;20462;-46
2021/06/07 01:16:35;;;;;;;25.57;18.00;;;18.40;80.20;;;;;;5042773;28;20498;-46
2021/06/07 01:19:06;;;;;;;21.70;16.87;;;18.40;80.30;;;;;;5039321;28;20465;-46
2021/06/07 01:21:35;;;;;;;23.50;17.70;;;18.40;80.00;;;;;;5040999;28;20471;-46
2021/06/07 01:24:03;;;;;;;27.50;18.47;;;18.40;79.90;;;;;;5042986;28;20466;-45
2021/06/07 01:26:32;;;;;;;27.60;18.60;;;18.40;80.10;;;;;;5041368;28;21046;-46
2021/06/07 01:29:00;;;;;;;24.50;16.63;;;18.40;80.20;;;;;;5044146;28;20467;-46
2021/06/07 01:31:28;;;;;;;25.33;19.10;;;18.40;80.00;;;;;;5041106;28;20525;-46
2021/06/07 01:33:56;;;;;;;28.10;18.27;;;18.40;80.10;;;;;;5041262;28;20459;-46
2021/06/07 01:36:24;;;;;;;28.20;17.80;;;18.40;80.20;;;;;;5043236;28;20451;-46
2021/06/07 01:38:52;;;;;;;29.77;18.60;;;18.40;79.80;;;;;;5042565;28;20451;-46
2021/06/07 01:41:21;;;;;;;25.03;16.60;;;18.40;80.10;;;;;;5045743;28;20455;-46
2021/06/07 01:43:49;;;;;;;28.10;18.37;;;18.30;80.30;;;;;;5041267;28;20520;-46
2021/06/07 01:46:17;;;;;;;24.40;18.17;;;18.30;80.40;;;;;;5042139;28;20487;-46
2021/06/07 01:48:45;;;;;;;26.37;18.23;;;18.30;80.50;;;;;;5043106;28;20951;-46
2021/06/07 01:51:13;;;;;;;23.97;16.57;;;18.30;80.40;;;;;;5037603;28;20473;-46
2021/06/07 01:53:44;;;;;;;30.63;17.00;;;18.30;80.40;;;;;;5039984;28;20455;-46
2021/06/07 01:56:12;;;;;;;24.40;18.13;;;18.30;80.40;;;;;;5042297;28;20462;-46
2021/06/07 01:58:41;;;;;;;28.80;18.47;;;18.30;80.50;;;;;;5038073;28;20946;-46
2021/06/07 02:01:13;;;;;;;22.23;16.97;;;18.30;80.60;;;;;;5058988;28;20805;-46
2021/06/07 02:03:42;;;;;;;25.23;17.43;;;18.30;80.60;;;;;;5042516;28;20565;-46
2021/06/07 02:06:12;;;;;;;26.27;17.97;;;18.40;80.40;;;;;;5045471;28;20493;-49
2021/06/07 02:08:41;;;;;;;22.93;16.50;;;18.30;80.20;;;;;;5043779;28;20478;-50
2021/06/07 02:11:13;;;;;;;26.73;17.60;;;18.40;80.20;;;;;;5045117;28;20452;-50
2021/06/07 02:13:41;;;;;;;21.20;15.87;;;18.40;80.10;;;;;;5044152;28;20451;-50
2021/06/07 02:16:18;;;;;;;22.70;16.20;;;18.40;80.10;;;;;;5046969;28;20509;-50
2021/06/07 02:18:47;;;;;;;28.00;17.73;;;18.40;80.00;;;;;;5046008;28;20481;-50
2021/06/07 02:21:18;;;;;;;23.97;16.57;;;18.30;80.00;;;;;;5044310;28;20455;-50
2021/06/07 02:23:48;;;;;;;20.63;16.13;;;18.30;80.20;;;;;;5045308;28;20939;-50
2021/06/07 02:26:16;;;;;;;20.73;15.40;;;18.30;80.40;;;;;;5044568;28;20549;-50
2021/06/07 02:28:58;;;;;;;22.63;17.27;;;18.30;80.60;;;;;;5042910;28;20950;-50
2021/06/07 02:31:27;;;;;;;20.00;15.73;;;18.30;80.30;;;;;;5045365;28;20461;-50
2021/06/07 02:34:00;;;;;;;25.20;15.20;;;18.30;80.00;;;;;;5043500;28;20478;-50
2021/06/07 02:36:31;;;;;;;23.57;15.77;;;18.30;79.90;;;;;;5047053;28;20997;-50
2021/06/07 02:38:59;;;;;;;20.73;14.23;;;18.40;79.80;;;;;;5045402;28;20466;-50
2021/06/07 02:41:27;;;;;;;22.30;15.13;;;18.40;79.60;;;;;;5044737;28;20465;-50
2021/06/07 02:43:55;;;;;;;22.50;14.40;;;18.30;79.70;;;;;;5049817;28;20458;-50
2021/06/07 02:46:23;;;;;;;18.37;12.83;;;18.30;79.90;;;;;;5044607;28;20498;-50
2021/06/07 02:48:51;;;;;;;20.30;14.40;;;18.40;79.50;;;;;;5047852;28;20481;-50
2021/06/07 02:51:19;;;;;;;22.60;14.30;;;18.40;79.40;;;;;;5043524;28;21001;-50
2021/06/07 02:53:49;;;;;;;20.70;12.80;;;18.40;79.50;;;;;;5045329;28;20954;-50
2021/06/07 02:56:17;;;;;;;16.90;13.40;;;18.40;79.40;;;;;;5047495;28;20454;-50
2021/06/07 02:58:45;;;;;;;20.17;13.83;;;18.30;79.50;;;;;;5044633;28;20540;-50
2021/06/07 03:01:14;;;;;;;19.83;13.57;;;18.20;79.70;;;;;;5043941;28;20459;-50
2021/06/07 03:03:43;;;;;;;18.73;13.80;;;18.30;80.30;;;;;;5042911;28;20862;-50
2021/06/07 03:06:10;;;;;;;16.20;12.00;;;18.20;80.50;;;;;;5045228;28;20494;-50
2021/06/07 03:08:38;;;;;;;17.93;13.47;;;18.30;80.40;;;;;;5044597;28;20494;-49
2021/06/07 03:11:09;;;;;;;15.50;12.97;;;18.30;80.30;;;;;;5043715;28;20463;-50
2021/06/07 03:13:40;;;;;;;18.80;13.83;;;18.30;80.40;;;;;;5044698;28;20458;-50
2021/06/07 03:16:08;;;;;;;17.67;13.33;;;18.30;80.50;;;;;;5044814;28;20459;-50
2021/06/07 03:18:37;;;;;;;15.27;12.60;;;18.20;80.60;;;;;;5042977;28;20461;-49
2021/06/07 03:21:06;;;;;;;14.60;11.67;;;18.20;80.90;;;;;;5044395;28;20466;-50
2021/06/07 03:23:36;;;;;;;16.20;11.20;;;18.20;81.20;;;;;;5045165;28;20989;-50
2021/06/07 03:26:06;;;;;;;9.90;8.30;;;18.30;81.50;;;;;;5045639;28;20549;-50
2021/06/07 03:28:35;;;;;;;13.93;9.33;;;18.30;82.00;;;;;;5043723;28;20458;-50
2021/06/07 03:31:04;;;;;;;13.70;10.60;;;18.20;82.40;;;;;;5044825;28;20462;-50
2021/06/07 03:33:32;;;;;;;11.17;9.20;;;18.20;82.80;;;;;;5045802;28;20457;-50
2021/06/07 03:36:00;;;;;;;12.90;9.73;;;18.20;82.90;;;;;;5044291;28;20463;-50
2021/06/07 03:38:32;;;;;;;13.20;10.30;;;18.20;83.00;;;;;;5045504;28;20455;-50
2021/06/07 03:41:00;;;;;;;11.40;9.57;;;18.10;83.20;;;;;;5042237;28;20809;-50
2021/06/07 03:43:31;;;;;;;10.90;9.20;;;18.10;83.50;;;;;;5043707;28;20486;-50
2021/06/07 03:46:00;;;;;;;11.50;10.00;;;18.10;83.70;;;;;;5040928;28;20502;-50
2021/06/07 03:48:29;;;;;;;11.43;9.13;;;18.10;84.00;;;;;;5044523;28;20470;-50
2021/06/07 03:50:57;;;;;;;11.20;9.07;;;18.10;84.10;;;;;;5044888;28;20466;-50
2021/06/07 03:53:26;;;;;;;10.87;8.90;;;18.10;84.20;;;;;;5044758;28;20474;-50
2021/06/07 03:55:54;;;;;;;12.50;9.70;;;18.10;84.40;;;;;;5044098;28;20458;-50
2021/06/07 03:58:23;;;;;;;10.83;9.40;;;18.00;84.70;;;;;;5044225;28;20451;-50
2021/06/07 04:00:51;;;;;;;10.50;9.40;;;18.00;85.00;;;;;;5045008;28;20938;-49
2021/06/07 04:03:19;;;;;;;14.80;11.30;;;18.00;85.30;;;;;;5043777;28;20455;-49
2021/06/07 04:05:47;;;;;;;12.70;9.70;;;17.90;85.50;;;;;;5042641;28;20494;-49
2021/06/07 04:08:15;;;;;;;16.97;11.57;;;17.90;85.60;;;;;;5042837;28;20867;-50
2021/06/07 04:10:46;;;;;;;14.40;11.67;;;17.90;85.50;;;;;;5045457;28;20478;-50
2021/06/07 04:13:14;;;;;;;17.83;12.60;;;17.80;85.70;;;;;;5041828;28;20455;-50
2021/06/07 04:15:42;;;;;;;18.20;12.70;;;17.90;86.00;;;;;;5042123;28;20456;-50
2021/06/07 04:18:10;;;;;;;17.07;12.23;;;17.90;86.00;;;;;;5040370;28;20493;-50
2021/06/07 04:20:38;;;;;;;20.37;12.70;;;17.90;86.20;;;;;;5041109;28;20465;-50
2021/06/07 04:23:08;;;;;;;18.30;12.57;;;17.80;86.20;;;;;;5042611;28;20467;-50
2021/06/07 04:25:36;;;;;;;18.93;13.83;;;17.80;86.30;;;;;;5041944;28;20487;-50
2021/06/07 04:28:05;;;;;;;20.13;14.63;;;17.80;86.40;;;;;;5041230;28;20519;-50
2021/06/07 04:30:33;;;;;;;19.90;13.80;;;17.80;86.50;;;;;;5042684;28;20485;-50
2021/06/07 04:33:05;;;;;;;16.20;13.07;;;17.80;86.60;;;;;;5043126;28;20451;-50
2021/06/07 04:35:33;;;;;;;19.23;13.60;;;17.80;86.70;;;;;;5044734;28;20501;-50
2021/06/07 04:38:01;;;;;;;14.73;12.67;;;17.80;86.80;;;;;;5043707;28;20467;-50
2021/06/07 04:40:35;;;;;;;16.57;13.67;;;17.80;86.80;;;;;;5043364;28;20984;-50
2021/06/07 04:43:07;;;;;;;15.23;12.30;;;17.80;86.80;;;;;;5043266;28;20470;-50
2021/06/07 04:45:36;;;;;;;15.70;12.10;;;17.80;86.60;;;;;;5040260;28;20475;-50
2021/06/07 04:48:06;;;;;;;13.73;11.20;;;17.80;86.70;;;;;;5042877;28;20512;-50
2021/06/07 04:50:34;;;;;;;17.23;12.83;;;17.80;86.80;;;;;;5042692;28;21014;-50
2021/06/07 04:53:04;;;;;;;18.17;12.33;;;17.70;86.90;;;;;;5042349;28;20455;-50
2021/06/07 04:55:43;;;;;;;17.40;12.60;;;17.80;87.10;;;;;;5042117;28;20470;-50
2021/06/07 04:58:25;;;;;;;17.37;12.07;;;17.80;87.00;;;;;;5041497;28;20470;-50
2021/06/07 05:01:06;;;;;;;18.60;13.20;;;17.80;86.90;;;;;;5043077;28;20799;-50
2021/06/07 05:03:34;;;;;;;14.30;10.17;;;17.80;87.30;;;;;;5039797;28;20966;-50
2021/06/07 05:06:04;;;;;;;13.33;10.97;;;17.80;87.50;;;;;;5042310;28;20486;-50
2021/06/07 05:08:33;;;;;;;16.80;11.13;;;17.80;87.20;;;;;;5043276;28;20485;-50
2021/06/07 05:11:01;;;;;;;16.20;13.40;;;17.80;87.40;;;;;;5042569;28;20548;-50
2021/06/07 05:13:29;;;;;;;15.43;11.90;;;17.70;87.40;;;;;;5042665;28;20516;-50
2021/06/07 05:15:58;;;;;;;12.97;11.17;;;17.70;87.60;;;;;;5043285;28;20469;-50
2021/06/07 05:18:27;;;;;;;15.97;11.93;;;17.70;87.60;;;;;;5043490;28;20470;-50
2021/06/07 05:20:55;;;;;;;15.20;11.30;;;17.70;87.80;;;;;;5043341;28;20462;-50
2021/06/07 05:23:23;;;;;;;11.03;9.53;;;17.70;87.90;;;;;;5041563;28;20470;-50
2021/06/07 05:25:51;;;;;;;14.80;10.77;;;17.70;87.80;;;;;;5042582;28;20506;-50
2021/06/07 05:28:20;;;;;;;10.53;9.43;;;17.70;87.70;;;;;;5042573;28;21173;-50
2021/06/07 05:30:49;;;;;;;11.60;9.30;;;17.70;87.90;;;;;;5040208;28;20971;-50
2021/06/07 05:33:18;;;;;;;12.33;9.30;;;17.70;87.90;;;;;;5040886;28;20457;-50
2021/06/07 05:35:49;;;;;;;13.10;10.40;;;17.70;87.70;;;;;;5036875;28;20463;-50
2021/06/07 05:38:19;;;;;;;12.90;9.60;;;17.70;87.70;;;;;;5044434;28;20467;-50
2021/06/07 05:40:50;;;;;;;11.03;9.90;;;17.70;87.70;;;;;;5041503;28;20963;-50
2021/06/07 05:43:19;;;;;;;12.93;10.40;;;17.70;87.60;;;;;;5042888;28;20975;-50
2021/06/07 05:45:47;;;;;;;12.50;9.73;;;17.70;87.80;;;;;;5042503;28;20474;-50
2021/06/07 05:48:15;;;;;;;16.60;10.30;;;17.70;87.80;;;;;;5042060;28;20454;-50
2021/06/07 05:50:43;;;;;;;13.70;10.07;;;17.70;88.00;;;;;;5039867;28;20907;-50
2021/06/07 05:53:13;;;;;;;13.27;10.37;;;17.70;87.90;;;;;;5041182;28;20459;-50
2021/06/07 05:55:43;;;;;;;16.17;11.83;;;17.70;88.00;;;;;;5041266;28;20466;-50
2021/06/07 05:58:17;;;;;;;15.17;10.37;;;17.70;88.00;;;;;;5044566;28;20453;-50
2021/06/07 06:00:48;;;;;;;16.20;10.23;;;17.70;88.20;;;;;;5046339;28;20462;-50
2021/06/07 06:03:17;;;;;;;13.60;9.60;;;17.70;88.20;;;;;;5040851;28;20494;-50
2021/06/07 06:05:45;;;;;;;13.63;10.37;;;17.70;88.30;;;;;;5042792;28;21000;-50
2021/06/07 06:08:13;;;;;;;15.10;9.30;;;17.70;88.40;;;;;;5041645;28;20522;-50
2021/06/07 06:10:42;;;;;;;12.03;9.87;;;17.70;88.40;;;;;;5039775;28;20653;-50
2021/06/07 06:13:31;;;;;;;13.30;10.40;;;17.70;88.30;;;;;;5039953;28;20448;-50
2021/06/07 06:15:59;;;;;;;19.90;11.50;;;17.70;88.40;;;;;;5042070;28;20825;-50
2021/06/07 06:18:28;;;;;;;13.97;11.10;;;17.60;88.50;;;;;;5045772;28;20478;-50
2021/06/07 06:20:56;;;;;;;15.87;10.83;;;17.60;88.40;;;;;;5039798;28;20532;-50
2021/06/07 06:23:24;;;;;;;13.10;10.60;;;17.60;88.50;;;;;;5038171;28;20478;-50
2021/06/07 06:25:52;;;;;;;13.40;9.70;;;17.70;88.40;;;;;;5041348;28;20959;-50
2021/06/07 06:28:20;;;;;;;13.30;9.53;;;17.60;88.50;;;;;;5041265;28;20963;-50
2021/06/07 06:30:48;;;;;;;14.33;10.27;;;17.60;88.70;;;;;;5037323;28;20456;-50
2021/06/07 06:33:16;;;;;;;13.60;9.47;;;17.60;88.70;;;;;;5039379;28;20466;-50
2021/06/07 06:35:44;;;;;;;10.73;9.23;;;17.60;88.90;;;;;;5040191;28;20470;-50
2021/06/07 06:38:12;;;;;;;12.60;9.53;;;17.60;88.90;;;;;;5039851;28;20852;-50
2021/06/07 06:40:40;;;;;;;14.10;9.80;;;17.60;88.90;;;;;;5037836;28;20466;-50
2021/06/07 06:43:08;;;;;;;15.47;10.40;;;17.60;88.70;;;;;;5041499;28;20466;-50
2021/06/07 06:45:39;;;;;;;12.83;8.80;;;17.60;88.80;;;;;;5041588;28;21085;-50
2021/06/07 06:48:09;;;;;;;15.90;8.97;;;17.60;88.90;;;;;;5037654;28;20951;-50
2021/06/07 06:50:40;;;;;;;13.77;9.63;;;17.60;88.70;;;;;;5039454;28;20452;-50
2021/06/07 06:53:17;;;;;;;11.77;10.33;;;17.60;88.50;;;;;;5038118;28;20448;-50
2021/06/07 06:55:49;;;;;;;12.87;9.77;;;17.60;88.70;;;;;;5040373;28;20444;-50
2021/06/07 06:58:17;;;;;;;15.03;10.33;;;17.60;88.60;;;;;;5038782;28;20454;-50
2021/06/07 07:00:46;;;;;;;14.27;10.30;;;17.60;88.70;;;;;;5045607;28;20480;-50
2021/06/07 07:03:18;;;;;;;12.37;9.60;;;17.60;88.90;;;;;;5043317;28;20947;-50
2021/06/07 07:05:47;;;;;;;16.57;10.93;;;17.60;89.10;;;;;;5046181;28;20478;-50
2021/06/07 07:08:17;;;;;;;14.87;9.77;;;17.60;89.10;;;;;;5042239;28;20478;-50
2021/06/07 07:10:45;;;;;;;15.40;10.33;;;17.50;89.30;;;;;;5044903;28;20994;-50
2021/06/07 07:13:14;;;;;;;13.40;10.70;;;17.50;89.50;;;;;;5045171;28;20458;-50
2021/06/07 07:15:43;;;;;;;16.47;10.87;;;17.50;89.50;;;;;;5044782;28;20459;-50
2021/06/07 07:18:11;;;;;;;16.57;10.30;;;17.50;89.80;;;;;;5042792;28;20450;-50
2021/06/07 07:20:41;;;;;;;15.13;10.47;;;17.50;89.80;;;;;;5041092;28;20862;-50
2021/06/07 07:23:10;;;;;;;19.83;10.50;;;17.50;89.70;;;;;;5043334;28;20462;-50
2021/06/07 07:25:38;;;;;;;14.97;10.63;;;17.50;89.80;;;;;;5037577;28;20454;-50
2021/06/07 07:28:08;;;;;;;16.10;10.83;;;17.60;89.80;;;;;;5040690;28;20447;-50
2021/06/07 07:30:38;;;;;;;12.03;10.73;;;17.60;89.80;;;;;;5042371;28;20454;-50
2021/06/07 07:33:10;;;;;;;13.43;10.00;;;17.60;89.80;;;;;;5044977;28;20495;-50
2021/06/07 07:35:38;;;;;;;12.50;9.10;;;17.60;89.80;;;;;;5057119;28;20546;-50
2021/06/07 07:38:06;;;;;;;14.37;10.30;;;17.70;89.70;;;;;;5041153;28;20459;-50
2021/06/07 07:40:38;;;;;;;13.83;10.33;;;17.70;89.70;;;;;;5044341;28;20473;-50
2021/06/07 07:43:06;;;;;;;11.87;9.77;;;17.70;89.60;;;;;;5043899;28;20459;-50
2021/06/07 07:45:36;;;;;;;12.97;10.40;;;17.70;89.80;;;;;;5043547;28;20458;-50
2021/06/07 07:48:06;;;;;;;13.33;8.73;;;17.70;89.80;;;;;;5041554;28;20939;-50
2021/06/07 07:50:35;;;;;;;8.37;7.47;;;17.80;89.80;;;;;;5042570;28;20651;-50
2021/06/07 07:53:04;;;;;;;10.70;7.50;;;17.80;89.80;;;;;;5041981;28;20456;-50
2021/06/07 07:55:34;;;;;;;10.00;8.70;;;17.80;89.70;;;;;;5040020;28;20442;-50
2021/06/07 07:58:06;;;;;;;11.10;8.00;;;17.80;89.80;;;;;;5041552;28;20457;-50
2021/06/07 08:00:34;;;;;;;9.87;7.77;;;17.80;89.70;;;;;;5045003;28;20493;-50
2021/06/07 08:03:03;;;;;;;10.17;8.20;;;17.80;89.80;;;;;;5045513;28;20459;-50
2021/06/07 08:05:32;;;;;;;8.53;7.60;;;17.80;89.60;;;;;;5040942;28;20990;-50
2021/06/07 08:08:01;;;;;;;11.97;8.87;;;17.80;89.50;;;;;;5044774;28;20486;-50
2021/06/07 08:10:30;;;;;;;8.40;7.17;;;17.80;89.50;;;;;;5042372;28;20464;-50
2021/06/07 08:12:59;;;;;;;11.10;8.03;;;17.80;89.70;;;;;;5045048;28;20458;-50
2021/06/07 08:15:28;;;;;;;8.73;7.07;;;17.80;89.80;;;;;;5043376;28;20551;-50
2021/06/07 08:17:57;;;;;;;9.20;8.10;;;17.90;89.80;;;;;;5040183;28;20462;-50
2021/06/07 08:20:25;;;;;;;8.07;7.20;;;17.90;89.70;;;;;;5043374;28;20451;-50
2021/06/07 08:22:55;;;;;;;9.90;6.80;;;17.90;89.70;;;;;;5040834;28;20459;-50
2021/06/07 08:25:25;;;;;;;9.20;7.83;;;17.90;89.60;;;;;;5040945;28;20447;-50
2021/06/07 08:27:54;;;;;;;9.90;7.60;;;17.90;89.50;;;;;;5041107;28;20503;-50
2021/06/07 08:30:22;;;;;;;8.97;7.40;;;17.90;89.60;;;;;;5040360;28;20466;-50
2021/06/07 08:32:50;;;;;;;13.20;8.00;;;17.90;89.50;;;;;;5040467;28;20965;-50
2021/06/07 08:35:18;;;;;;;9.47;8.17;;;17.90;89.60;;;;;;5041617;28;20458;-50
2021/06/07 08:37:47;;;;;;;10.20;7.40;;;17.90;89.70;;;;;;5043179;28;21007;-50
2021/06/07 08:40:16;;;;;;;10.00;7.90;;;17.90;89.70;;;;;;5040776;28;20470;-50
2021/06/07 08:42:44;;;;;;;10.30;6.90;;;17.90;89.50;;;;;;5042532;28;20458;-50
2021/06/07 08:45:19;;;;;;;9.73;7.43;;;17.90;89.50;;;;;;5041352;28;20520;-50
2021/06/07 08:47:49;;;;;;;8.07;6.93;;;17.90;89.50;;;;;;5040885;28;20483;-50
2021/06/07 08:50:22;;;;;;;10.50;7.10;;;17.90;89.40;;;;;;5041420;28;20450;-50
2021/06/07 08:52:50;;;;;;;8.83;6.87;;;18.00;89.20;;;;;;5040655;28;20492;-50
2021/06/07 08:55:21;;;;;;;9.50;7.40;;;17.90;89.30;;;;;;5043204;28;20978;-50
2021/06/07 08:57:51;;;;;;;12.00;8.30;;;17.90;89.40;;;;;;5041541;28;20455;-50
2021/06/07 09:00:22;;;;;;;8.60;5.97;;;17.90;89.60;;;;;;5041869;28;21013;-50
2021/06/07 09:02:57;;;;;;;6.33;5.67;;;18.00;89.10;;;;;;5040381;28;20443;-50
2021/06/07 09:05:27;;;;;;;6.50;5.17;;;18.00;88.60;;;;;;5038715;28;20458;-50
2021/06/07 09:07:57;;;;;;;6.13;5.53;;;18.00;88.40;;;;;;5039899;28;20493;-50
2021/06/07 09:10:29;;;;;;;5.87;5.27;;;17.90;88.80;;;;;;5042482;28;20459;-50
2021/06/07 09:13:00;;;;;;;6.50;5.70;;;17.90;89.00;;;;;;5043083;28;20451;-50
2021/06/07 09:15:42;;;;;;;8.93;5.80;;;17.90;89.00;;;;;;5041450;28;20514;-50
2021/06/07 09:18:13;;;;;;;7.93;5.47;;;17.90;89.30;;;;;;5041447;28;20521;-50
2021/06/07 09:20:43;;;;;;;6.73;5.70;;;17.80;89.60;;;;;;5040765;28;20457;-50
2021/06/07 09:23:14;;;;;;;8.67;5.77;;;17.90;89.50;;;;;;5038850;28;20466;-50
2021/06/07 09:25:45;;;;;;;6.30;5.67;;;17.90;89.70;;;;;;5040462;28;20494;-50
2021/06/07 09:28:20;;;;;;;7.40;5.93;;;17.90;89.50;;;;;;5040956;28;20486;-50
2021/06/07 09:30:58;;;;;;;6.93;5.50;;;17.90;89.60;;;;;;5042968;28;20478;-50
2021/06/07 09:33:29;;;;;;;5.57;4.93;;;17.90;89.70;;;;;;5041122;28;20442;-50
2021/06/07 09:36:28;;;;;;;6.20;5.10;;;17.90;89.40;;;;;;5041208;28;20472;-50
2021/06/07 09:39:15;;;;;;;5.53;5.03;;;17.90;89.70;;;;;;5023660;28;20481;-50
2021/06/07 09:41:51;;;;;;;5.27;4.77;;;17.90;89.70;;;;;;5043011;28;20454;-50
2021/06/07 09:44:24;;;;;;;5.53;5.00;;;17.90;89.30;;;;;;5043383;28;20459;-50
2021/06/07 09:47:06;;;;;;;5.30;4.80;;;17.90;89.30;;;;;;5040966;28;20574;-50
2021/06/07 09:49:48;;;;;;;5.93;5.43;;;17.90;89.50;;;;;;5041510;28;20463;-50
2021/06/07 09:52:29;;;;;;;5.40;4.90;;;17.90;89.50;;;;;;5039188;28;20463;-50
2021/06/07 09:55:06;;;;;;;5.90;4.87;;;17.90;89.70;;;;;;5042978;28;20518;-50
2021/06/07 09:57:53;;;;;;;5.47;4.97;;;17.90;89.60;;;;;;5041364;28;20458;-50
2021/06/07 10:00:42;;;;;;;6.50;4.90;;;17.90;89.50;;;;;;5043093;28;20447;-50
2021/06/07 10:03:15;;;;;;;5.67;5.17;;;17.90;89.70;;;;;;5039090;28;20525;-50
2021/06/07 10:05:43;;;;;;;6.57;5.60;;;17.90;89.80;;;;;;5039545;28;20466;-50
2021/06/07 10:08:11;;;;;;;6.13;5.53;;;17.90;89.80;;;;;;5042440;28;20498;-50
2021/06/07 10:10:40;;;;;;;5.40;4.90;;;18.00;89.80;;;;;;5041261;28;20457;-50
2021/06/07 10:13:12;;;;;;;7.00;5.73;;;18.10;89.80;;;;;;5037449;28;20478;-50
2021/06/07 10:15:45;;;;;;;6.53;5.93;;;18.10;89.80;;;;;;5042995;28;20458;-50
2021/06/07 10:18:19;;;;;;;6.93;5.63;;;18.10;89.80;;;;;;5041628;28;20463;-50
2021/06/07 10:20:52;;;;;;;7.97;5.50;;;18.20;89.70;;;;;;5036845;28;20456;-50
2021/06/07 10:23:28;;;;;;;6.90;6.20;;;18.30;89.30;;;;;;5035351;28;20454;-50
2021/06/07 10:26:02;;;;;;;8.50;5.97;;;18.40;89.00;;;;;;5038238;28;20492;-50
2021/06/07 10:28:36;;;;;;;6.90;6.20;;;18.40;88.30;;;;;;5043718;28;20486;-50
2021/06/07 10:31:13;;;;;;;7.83;6.83;;;18.50;88.40;;;;;;5041564;28;20455;-50
2021/06/07 10:33:54;;;;;;;10.00;6.80;;;18.50;88.50;;;;;;5046868;28;20537;-50
2021/06/07 10:36:22;;;;;;;9.50;7.70;;;18.60;88.40;;;;;;5044458;28;20443;-50
2021/06/07 10:38:52;;;;;;;7.97;7.10;;;18.60;88.20;;;;;;5040688;28;21022;-51
2021/06/07 10:41:28;;;;;;;8.50;7.70;;;18.60;88.40;;;;;;5047445;28;20510;-50
2021/06/07 10:44:00;;;;;;;8.70;7.80;;;18.70;88.30;;;;;;5044160;28;20470;-50
2021/06/07 10:46:33;;;;;;;8.97;7.70;;;18.80;88.20;;;;;;5043136;28;20463;-50
2021/06/07 10:49:05;;;;;;;7.77;6.97;;;18.80;87.50;;;;;;5046036;28;20470;-50
2021/06/07 10:51:34;;;;;;;8.13;7.23;;;18.90;87.50;;;;;;5043391;28;20458;-50
2021/06/07 10:54:34;;;;;;;9.03;8.20;;;19.00;87.10;;;;;;5041858;28;20942;-50
2021/06/07 10:57:29;;;;;;;9.93;8.30;;;19.00;87.10;;;;;;5045157;28;20462;-50
2021/06/07 11:00:07;;;;;;;9.57;8.57;;;19.00;87.30;;;;;;5041918;28;20466;-50
2021/06/07 11:02:37;;;;;;;9.90;8.87;;;19.10;86.40;;;;;;5043908;28;20459;-50
2021/06/07 11:05:12;;;;;;;11.67;9.83;;;19.10;86.50;;;;;;5042604;28;20541;-50
2021/06/07 11:07:43;;;;;;;10.20;9.20;;;19.10;86.70;;;;;;5044596;28;20486;-50
2021/06/07 11:10:29;;;;;;;10.93;9.77;;;19.10;87.00;;;;;;5043996;28;21035;-50
2021/06/07 11:13:17;;;;;;;11.20;10.00;;;19.10;87.20;;;;;;5044492;28;20462;-50
2021/06/07 11:15:55;;;;;;;10.80;9.70;;;19.10;87.50;;;;;;5045781;28;20454;-50
2021/06/07 11:18:34;;;;;;;11.30;10.20;;;19.10;87.50;;;;;;5044649;28;21142;-50
2021/06/07 11:21:08;;;;;;;11.97;10.20;;;19.10;87.50;;;;;;5045137;28;20462;-50
2021/06/07 11:23:45;;;;;;;11.87;10.63;;;19.10;87.50;;;;;;5040834;28;20942;-50
2021/06/07 11:26:20;;;;;;;11.83;10.17;;;19.10;87.50;;;;;;5042118;28;20471;-50
2021/06/07 11:29:14;;;;;;;9.80;8.60;;;19.10;87.30;;;;;;5042502;28;20494;-50
2021/06/07 11:31:48;;;;;;;10.00;8.50;;;19.20;84.90;;;;;;5043620;28;20459;-50
2021/06/07 11:34:20;;;;;;;11.60;9.97;;;19.10;84.80;;;;;;5044115;28;20481;-50
2021/06/07 11:36:59;;;;;;;11.67;9.20;;;19.10;85.30;;;;;;5040751;28;20443;-50
2021/06/07 11:39:48;;;;;;;12.93;9.30;;;19.10;84.60;;;;;;5041236;28;20458;-50
2021/06/07 11:42:22;;;;;;;9.77;8.83;;;19.00;85.10;;;;;;5043501;28;20443;-50
2021/06/07 11:45:06;;;;;;;9.57;8.50;;;19.00;84.80;;;;;;5042901;28;20814;-50
2021/06/07 11:47:41;;;;;;;12.83;9.40;;;19.00;85.40;;;;;;5042119;28;21014;-50
2021/06/07 11:50:10;;;;;;;9.57;8.40;;;19.00;85.40;;;;;;5043479;28;20453;-50
2021/06/07 11:52:49;;;;;;;11.13;9.40;;;19.00;84.70;;;;;;5044385;28;20470;-50
2021/06/07 11:55:21;;;;;;;9.93;8.93;;;19.00;84.80;;;;;;5043521;28;20465;-50
2021/06/07 11:57:51;;;;;;;10.57;8.90;;;19.00;84.50;;;;;;5044230;28;20467;-50
2021/06/07 12:00:22;;;;;;;10.80;9.70;;;18.90;84.80;;;;;;5042387;28;20451;-50
2021/06/07 12:02:50;;;;;;;15.43;10.10;;;18.90;84.90;;;;;;5044313;28;20467;-50
2021/06/07 12:05:18;;;;;;;11.87;9.83;;;19.00;85.20;;;;;;5043142;28;20522;-50
2021/06/07 12:07:46;;;;;;;9.50;8.60;;;19.00;85.50;;;;;;5040926;28;20494;-50
2021/06/07 12:10:18;;;;;;;9.00;8.10;;;19.00;85.60;;;;;;5041710;28;20447;-50
2021/06/07 12:12:46;;;;;;;8.83;7.93;;;19.10;85.30;;;;;;5042984;28;20955;-50
2021/06/07 12:15:17;;;;;;;9.13;8.30;;;19.10;84.60;;;;;;5043525;28;20513;-50
2021/06/07 12:17:50;;;;;;;10.77;8.20;;;19.20;84.80;;;;;;5044954;28;20454;-50
2021/06/07 12:20:19;;;;;;;8.77;7.60;;;19.20;85.20;;;;;;5045359;28;20458;-50
2021/06/07 12:22:50;;;;;;;10.50;9.50;;;19.20;85.30;;;;;;5040487;28;20481;-50
2021/06/07 12:28:23;;;;;;;10.77;8.80;;;19.30;85.60;;;;;;5042191;28;20494;-50
2021/06/07 12:30:52;;;;;;;9.33;7.83;;;19.30;85.50;;;;;;5037903;28;20510;-50
2021/06/07 12:33:31;;;;;;;9.93;8.93;;;19.40;85.30;;;;;;5042236;28;20463;-50
2021/06/07 12:36:00;;;;;;;8.30;7.50;;;19.40;85.30;;;;;;5043554;28;20455;-50
2021/06/07 12:38:28;;;;;;;8.33;6.53;;;19.50;85.30;;;;;;5042027;28;20554;-50
2021/06/07 12:40:59;;;;;;;7.53;6.93;;;19.50;84.60;;;;;;5042652;28;20466;-50
2021/06/07 12:43:32;;;;;;;8.93;8.03;;;19.60;83.20;;;;;;5044211;28;20457;-50
2021/06/07 12:46:03;;;;;;;9.47;7.87;;;19.70;83.30;;;;;;5044570;28;20454;-50
2021/06/07 12:48:42;;;;;;;8.60;7.70;;;19.80;83.30;;;;;;5041827;28;20479;-50
2021/06/07 12:51:13;;;;;;;11.00;8.20;;;19.80;83.30;;;;;;5043493;28;20459;-50
2021/06/07 12:53:46;;;;;;;8.30;7.50;;;19.90;83.10;;;;;;5042522;28;20457;-50
2021/06/07 12:56:20;;;;;;;7.67;6.80;;;20.00;82.30;;;;;;5041825;28;20890;-50
2021/06/07 12:58:57;;;;;;;7.47;6.77;;;20.10;81.70;;;;;;5041902;28;20467;-50